Terminal Aerodrome Forecast
Issued by NWS

Home | Current Version | Previous Version | Text Only | Print | Product List | Glossary On
Versions: 1 2 3 4 5 6 7 8 9 10 11 12 13 14 15 16 17 18 19 20
000
FTUS41 KBOX 241120
TAFHYA
TAF
KHYA 241120Z 2412/2512 19012KT P6SM OVC110
     FM241800 20014G29KT P6SM OVC060
     FM242300 22014G29KT P6SM OVC050
     FM250200 24012G19KT P6SM BKN040
     FM251000 26008KT P6SM BKN060=

USA.gov is the U.S. government's official web portal to all federal, state and local government web resources and services.